createdAt,value
2018-08-04T00:00:19.094Z,1008.15
2018-08-04T00:01:19.157Z,1008.14
2018-08-04T00:02:19.219Z,1008.14
2018-08-04T00:03:19.283Z,1008.16
2018-08-04T00:04:19.345Z,1008.12
2018-08-04T00:05:19.408Z,1008.13
2018-08-04T00:06:19.471Z,1008.12
2018-08-04T00:07:19.535Z,1008.06
2018-08-04T00:08:19.597Z,1008.08
2018-08-04T00:09:19.661Z,1008.07
2018-08-04T00:10:19.723Z,1008.06
2018-08-04T00:11:19.786Z,1008.07
2018-08-04T00:12:19.850Z,1008.05
2018-08-04T00:13:19.912Z,1008.07
2018-08-04T00:14:19.977Z,1008.08
2018-08-04T00:15:20.039Z,1008.07
2018-08-04T00:16:20.102Z,1008.08
2018-08-04T00:17:20.162Z,1008.10
2018-08-04T00:18:20.227Z,1008.06
2018-08-04T00:19:20.290Z,1008.05
2018-08-04T00:20:20.354Z,1008.08
2018-08-04T00:21:20.415Z,1008.08
2018-08-04T00:22:20.481Z,1008.11
2018-08-04T00:23:20.541Z,1008.09
2018-08-04T00:24:20.605Z,1008.08
2018-08-04T00:25:20.666Z,1008.07
2018-08-04T00:26:20.730Z,1008.08
2018-08-04T00:27:20.844Z,1008.09
2018-08-04T00:28:20.856Z,1008.08
2018-08-04T00:29:20.918Z,1008.08
2018-08-04T00:30:20.981Z,1008.04
2018-08-04T00:31:21.045Z,1008.05
2018-08-04T00:32:21.107Z,1008.05
2018-08-04T00:33:21.169Z,1008.04
2018-08-04T00:34:21.232Z,1008.02
2018-08-04T00:35:21.296Z,1008.01
2018-08-04T00:36:21.358Z,1008.02
2018-08-04T00:37:21.420Z,1007.99
2018-08-04T00:38:21.483Z,1007.99
2018-08-04T00:39:21.547Z,1007.99
2018-08-04T00:40:21.613Z,1007.98
2018-08-04T00:41:21.672Z,1007.93
2018-08-04T00:42:21.735Z,1007.95
2018-08-04T00:43:21.797Z,1007.89
2018-08-04T00:44:21.861Z,1007.91
2018-08-04T00:45:21.922Z,1007.89
2018-08-04T00:46:21.984Z,1007.89
2018-08-04T00:47:22.049Z,1007.87
2018-08-04T00:48:22.112Z,1007.86
2018-08-04T00:49:22.173Z,1007.86
2018-08-04T00:50:22.253Z,1007.87
2018-08-04T00:51:22.298Z,1007.84
2018-08-04T00:52:22.360Z,1007.83
2018-08-04T00:53:22.422Z,1007.79
2018-08-04T00:54:22.485Z,1007.77
2018-08-04T00:55:22.565Z,1007.77
2018-08-04T00:56:22.611Z,1007.76
2018-08-04T00:57:22.676Z,1007.75
2018-08-04T00:58:22.735Z,1007.72
2018-08-04T00:59:22.799Z,1007.70
2018-08-04T01:00:22.862Z,1007.68
2018-08-04T01:01:22.922Z,1007.71
2018-08-04T01:02:22.987Z,1007.69
2018-08-04T01:03:23.052Z,1007.69
2018-08-04T01:04:23.110Z,1007.70
2018-08-04T01:05:23.172Z,1007.68
2018-08-04T01:06:23.235Z,1007.69
2018-08-04T01:07:23.297Z,1007.69
2018-08-04T01:08:23.361Z,1007.73
2018-08-04T01:09:23.422Z,1007.73
2018-08-04T01:10:23.484Z,1007.72
2018-08-04T01:11:23.547Z,1007.74
2018-08-04T01:12:23.610Z,1007.75
2018-08-04T01:13:23.672Z,1007.75
2018-08-04T01:14:23.738Z,1007.73
2018-08-04T01:15:23.797Z,1007.74
2018-08-04T01:16:23.861Z,1007.74
2018-08-04T01:17:23.921Z,1007.75
2018-08-04T01:18:23.984Z,1007.76
2018-08-04T01:19:24.046Z,1007.76
2018-08-04T01:20:24.109Z,1007.78
2018-08-04T01:21:24.174Z,1007.79
2018-08-04T01:22:24.234Z,1007.76
2018-08-04T01:23:24.296Z,1007.73
2018-08-04T01:24:24.360Z,1007.76
2018-08-04T01:25:24.419Z,1007.78
2018-08-04T01:26:24.483Z,1007.79
2018-08-04T01:27:24.545Z,1007.75
2018-08-04T01:28:24.607Z,1007.77
2018-08-04T01:29:24.672Z,1007.78
2018-08-04T01:30:24.731Z,1007.76
2018-08-04T01:31:24.802Z,1007.78
2018-08-04T01:32:24.858Z,1007.74
2018-08-04T01:33:24.918Z,1007.77
2018-08-04T01:34:24.981Z,1007.77
2018-08-04T01:35:25.047Z,1007.77
2018-08-04T01:36:25.107Z,1007.74
2018-08-04T01:37:25.167Z,1007.74
2018-08-04T01:38:25.231Z,1007.77
2018-08-04T01:39:25.292Z,1007.76
2018-08-04T01:40:25.357Z,1007.77
2018-08-04T01:41:25.416Z,1007.78
2018-08-04T01:42:25.480Z,1007.79
2018-08-04T01:43:25.540Z,1007.78
2018-08-04T01:44:25.604Z,1007.76
2018-08-04T01:45:25.665Z,1007.77
2018-08-04T01:46:25.727Z,1007.74
2018-08-04T01:47:25.790Z,1007.73
2018-08-04T01:48:25.853Z,1007.75
2018-08-04T01:49:25.915Z,1007.70
2018-08-04T01:50:25.976Z,1007.72
2018-08-04T01:51:26.039Z,1007.71
2018-08-04T01:52:26.100Z,1007.72
2018-08-04T01:53:26.163Z,1007.67
2018-08-04T01:54:26.227Z,1007.67
2018-08-04T01:55:26.287Z,1007.66
2018-08-04T01:56:26.349Z,1007.66
2018-08-04T01:57:26.411Z,1007.66
2018-08-04T01:58:26.473Z,1007.66
2018-08-04T01:59:26.536Z,1007.65
2018-08-04T02:00:26.597Z,1007.66
2018-08-04T02:01:26.659Z,1007.62
2018-08-04T02:02:26.722Z,1007.66
2018-08-04T02:03:26.784Z,1007.64
2018-08-04T02:04:26.846Z,1007.63
2018-08-04T02:05:26.907Z,1007.66
2018-08-04T02:06:26.971Z,1007.67
2018-08-04T02:07:27.033Z,1007.67
2018-08-04T02:08:27.100Z,1007.70
2018-08-04T02:09:27.156Z,1007.71
2018-08-04T02:10:27.218Z,1007.70
2018-08-04T02:11:27.280Z,1007.70
2018-08-04T02:12:27.342Z,1007.70
2018-08-04T02:13:27.402Z,1007.68
2018-08-04T02:14:27.465Z,1007.67
2018-08-04T02:15:27.778Z,1007.67
2018-08-04T02:16:27.591Z,1007.66
2018-08-04T02:17:27.653Z,1007.66
2018-08-04T02:18:27.715Z,1007.68
2018-08-04T02:19:27.777Z,1007.65
2018-08-04T02:20:27.838Z,1007.66
2018-08-04T02:21:27.902Z,1007.69
2018-08-04T02:22:27.962Z,1007.67
2018-08-04T02:23:28.024Z,1007.65
2018-08-04T02:24:28.095Z,1007.65
2018-08-04T02:25:28.147Z,1007.67
2018-08-04T02:26:28.209Z,1007.66
2018-08-04T02:27:28.272Z,1007.62
2018-08-04T02:28:28.335Z,1007.66
2018-08-04T02:29:28.395Z,1007.63
2018-08-04T02:30:28.458Z,1007.62
2018-08-04T02:31:28.521Z,1007.62
2018-08-04T02:32:28.581Z,1007.64
2018-08-04T02:33:28.645Z,1007.61
2018-08-04T02:34:28.706Z,1007.62
2018-08-04T02:35:28.768Z,1007.59
2018-08-04T02:36:28.830Z,1007.57
2018-08-04T02:37:28.890Z,1007.56
2018-08-04T02:38:28.952Z,1007.60
2018-08-04T02:39:29.016Z,1007.57
2018-08-04T02:40:29.077Z,1007.60
2018-08-04T02:41:29.138Z,1007.60
2018-08-04T02:42:29.202Z,1007.54
2018-08-04T02:43:29.272Z,1007.54
2018-08-04T02:44:29.323Z,1007.53
2018-08-04T02:45:29.387Z,1007.56
2018-08-04T02:46:29.449Z,1007.55
2018-08-04T02:47:29.510Z,1007.52
2018-08-04T02:48:29.571Z,1007.49
2018-08-04T02:49:29.633Z,1007.50
2018-08-04T02:50:29.945Z,1007.50
2018-08-04T02:51:29.759Z,1007.49
2018-08-04T02:52:29.824Z,1007.50
2018-08-04T02:53:29.880Z,1007.50
2018-08-04T02:54:29.942Z,1007.52
2018-08-04T02:55:30.154Z,1007.53
2018-08-04T02:56:30.066Z,1007.49
2018-08-04T02:57:30.127Z,1007.51
2018-08-04T02:58:30.193Z,1007.50
2018-08-04T02:59:30.252Z,1007.51
2018-08-04T03:00:30.313Z,1007.49
2018-08-04T03:01:30.375Z,1007.50
2018-08-04T03:02:30.435Z,1007.47
2018-08-04T03:03:30.499Z,1007.45
2018-08-04T03:04:30.561Z,1007.49
2018-08-04T03:05:30.626Z,1007.49
2018-08-04T03:06:30.684Z,1007.52
2018-08-04T03:07:30.744Z,1007.51
2018-08-04T03:08:30.852Z,1007.45
2018-08-04T03:09:30.869Z,1007.52
2018-08-04T03:10:30.932Z,1007.49
2018-08-04T03:11:30.994Z,1007.51
2018-08-04T03:12:31.055Z,1007.53
2018-08-04T03:13:31.116Z,1007.54
2018-08-04T03:14:31.179Z,1007.57
2018-08-04T03:15:31.240Z,1007.57
2018-08-04T03:16:31.303Z,1007.58
2018-08-04T03:17:31.364Z,1007.59
2018-08-04T03:18:31.426Z,1007.60
2018-08-04T03:19:31.488Z,1007.59
2018-08-04T03:20:31.550Z,1007.61
2018-08-04T03:21:31.612Z,1007.57
2018-08-04T03:22:31.677Z,1007.60
2018-08-04T03:23:31.735Z,1007.63
2018-08-04T03:24:31.797Z,1007.61
2018-08-04T03:25:31.860Z,1007.60
2018-08-04T03:26:31.921Z,1007.64
2018-08-04T03:27:31.981Z,1007.61
2018-08-04T03:28:32.047Z,1007.62
2018-08-04T03:29:32.107Z,1007.62
2018-08-04T03:30:32.166Z,1007.61
2018-08-04T03:31:32.380Z,1007.64
2018-08-04T03:32:32.291Z,1007.64
2018-08-04T03:33:32.352Z,1007.64
2018-08-04T03:34:32.414Z,1007.70
2018-08-04T03:35:32.476Z,1007.73
2018-08-04T03:36:32.537Z,1007.71
2018-08-04T03:37:32.598Z,1007.74
2018-08-04T03:38:32.662Z,1007.74
2018-08-04T03:39:32.722Z,1007.72
2018-08-04T03:40:32.784Z,1007.75
2018-08-04T03:41:32.845Z,1007.74
2018-08-04T03:42:32.907Z,1007.73
2018-08-04T03:43:32.971Z,1007.74
2018-08-04T03:44:33.033Z,1007.81
2018-08-04T03:45:33.093Z,1007.79
2018-08-04T03:46:33.155Z,1007.85
2018-08-04T03:47:33.217Z,1007.85
2018-08-04T03:48:33.279Z,1007.83
2018-08-04T03:49:33.340Z,1007.83
2018-08-04T03:50:33.405Z,1007.85
2018-08-04T03:51:33.465Z,1007.87
2018-08-04T03:52:33.528Z,1007.87
2018-08-04T03:53:33.588Z,1007.88
2018-08-04T03:54:33.653Z,1007.86
2018-08-04T03:55:33.713Z,1007.89
2018-08-04T03:56:33.774Z,1007.87
2018-08-04T03:57:33.835Z,1007.89
2018-08-04T03:58:33.897Z,1007.92
2018-08-04T03:59:33.975Z,1007.90
2018-08-04T04:00:34.022Z,1007.90
2018-08-04T04:01:34.084Z,1007.89
2018-08-04T04:02:34.147Z,1007.89
2018-08-04T04:03:34.208Z,1007.86
2018-08-04T04:04:34.275Z,1007.86
2018-08-04T04:05:34.332Z,1007.90
2018-08-04T04:06:34.414Z,1007.88
2018-08-04T04:07:34.456Z,1007.87
2018-08-04T04:08:34.518Z,1007.91
2018-08-04T04:09:34.583Z,1007.90
2018-08-04T04:10:34.641Z,1007.93
2018-08-04T04:11:34.703Z,1007.91
2018-08-04T04:12:34.765Z,1007.93
2018-08-04T04:13:34.826Z,1007.92
2018-08-04T04:14:34.890Z,1007.95
2018-08-04T04:15:34.950Z,1007.90
2018-08-04T04:16:35.013Z,1007.90
2018-08-04T04:17:35.074Z,1007.92
2018-08-04T04:18:35.145Z,1007.91
2018-08-04T04:19:35.198Z,1007.95
2018-08-04T04:20:35.260Z,1007.92
2018-08-04T04:21:35.324Z,1007.92
2018-08-04T04:22:35.383Z,1007.89
2018-08-04T04:23:35.446Z,1007.92
2018-08-04T04:24:35.508Z,1007.89
2018-08-04T04:25:35.570Z,1007.92
2018-08-04T04:26:35.632Z,1007.95
2018-08-04T04:27:35.695Z,1007.90
2018-08-04T04:28:35.756Z,1007.97
2018-08-04T04:29:35.817Z,1007.93
2018-08-04T04:30:35.881Z,1007.93
2018-08-04T04:31:36.193Z,1007.94
2018-08-04T04:32:36.006Z,1007.95
2018-08-04T04:33:36.066Z,1007.94
2018-08-04T04:34:36.128Z,1007.97
2018-08-04T04:35:36.189Z,1007.95
2018-08-04T04:36:36.251Z,1007.96
2018-08-04T04:37:36.313Z,1008.01
2018-08-04T04:38:36.375Z,1007.99
2018-08-04T04:39:36.437Z,1008.03
2018-08-04T04:40:36.499Z,1008.02
2018-08-04T04:41:36.563Z,1008.04
2018-08-04T04:42:36.622Z,1008.04
2018-08-04T04:43:36.685Z,1008.09
2018-08-04T04:44:36.747Z,1008.12
2018-08-04T04:45:36.810Z,1008.17
2018-08-04T04:46:36.871Z,1008.17
2018-08-04T04:47:36.931Z,1008.18
2018-08-04T04:48:37.092Z,1008.24
2018-08-04T04:49:37.056Z,1008.22
2018-08-04T04:50:37.117Z,1008.24
2018-08-04T04:51:37.180Z,1008.25
2018-08-04T04:52:37.244Z,1008.25
2018-08-04T04:53:37.304Z,1008.22
2018-08-04T04:54:37.365Z,1008.23
2018-08-04T04:55:37.428Z,1008.24
2018-08-04T04:56:37.489Z,1008.23
2018-08-04T04:57:37.551Z,1008.26
2018-08-04T04:58:37.613Z,1008.26
2018-08-04T04:59:37.676Z,1008.23
2018-08-04T05:00:37.738Z,1008.29
2018-08-04T05:01:37.799Z,1008.27
2018-08-04T05:02:37.862Z,1008.30
2018-08-04T05:03:37.926Z,1008.27
2018-08-04T05:04:39.165Z,1008.29
2018-08-04T05:05:38.048Z,1008.27
2018-08-04T05:06:38.108Z,1008.29
2018-08-04T05:07:38.171Z,1008.30
2018-08-04T05:08:38.273Z,1008.33
2018-08-04T05:09:38.296Z,1008.30
2018-08-04T05:10:38.356Z,1008.32
2018-08-04T05:11:38.669Z,1008.36
2018-08-04T05:12:38.481Z,1008.38
2018-08-04T05:13:38.542Z,1008.37
2018-08-04T05:14:38.605Z,1008.35
2018-08-04T05:15:38.666Z,1008.39
2018-08-04T05:16:38.730Z,1008.38
2018-08-04T05:17:38.790Z,1008.36
2018-08-04T05:18:38.852Z,1008.40
2018-08-04T05:19:38.914Z,1008.39
2018-08-04T05:20:38.976Z,1008.40
2018-08-04T05:21:39.057Z,1008.44
2018-08-04T05:22:39.100Z,1008.45
2018-08-04T05:23:39.163Z,1008.43
2018-08-04T05:24:39.225Z,1008.40
2018-08-04T05:25:39.288Z,1008.43
2018-08-04T05:26:39.352Z,1008.44
2018-08-04T05:27:39.411Z,1008.46
2018-08-04T05:28:39.474Z,1008.45
2018-08-04T05:29:39.538Z,1008.47
2018-08-04T05:30:39.599Z,1008.45
2018-08-04T05:31:39.661Z,1008.45
2018-08-04T05:32:39.723Z,1008.45
2018-08-04T05:33:39.784Z,1008.42
2018-08-04T05:34:39.848Z,1008.42
2018-08-04T05:35:39.912Z,1008.39
2018-08-04T05:36:39.972Z,1008.42
2018-08-04T05:37:40.035Z,1008.39
2018-08-04T05:38:40.096Z,1008.46
2018-08-04T05:39:40.158Z,1008.46
2018-08-04T05:40:40.221Z,1008.47
2018-08-04T05:41:40.282Z,1008.46
2018-08-04T05:42:40.349Z,1008.46
2018-08-04T05:43:40.464Z,1008.48
2018-08-04T05:44:40.470Z,1008.42
2018-08-04T05:45:40.533Z,1008.43
2018-08-04T05:46:40.595Z,1008.45
2018-08-04T05:47:40.658Z,1008.42
2018-08-04T05:48:40.719Z,1008.44
2018-08-04T05:49:40.782Z,1008.43
2018-08-04T05:50:40.844Z,1008.46
2018-08-04T05:51:40.906Z,1008.44
2018-08-04T05:52:41.221Z,1008.44
2018-08-04T05:53:41.031Z,1008.43
2018-08-04T05:54:41.095Z,1008.46
2018-08-04T05:55:41.156Z,1008.47
2018-08-04T05:56:41.219Z,1008.48
2018-08-04T05:57:41.280Z,1008.52
2018-08-04T05:58:41.348Z,1008.51
2018-08-04T05:59:41.408Z,1008.50
2018-08-04T06:00:41.476Z,1008.46
2018-08-04T06:01:41.565Z,1008.51
2018-08-04T06:02:41.595Z,1008.49
2018-08-04T06:03:41.659Z,1008.51
2018-08-04T06:04:41.724Z,1008.51
2018-08-04T06:05:41.784Z,1008.53
2018-08-04T06:06:41.848Z,1008.54
2018-08-04T06:07:41.910Z,1008.51
2018-08-04T06:08:41.973Z,1008.51
2018-08-04T06:09:42.035Z,1008.50
2018-08-04T06:10:42.098Z,1008.50
2018-08-04T06:11:42.162Z,1008.53
2018-08-04T06:12:42.225Z,1008.53
2018-08-04T06:13:42.288Z,1008.51
2018-08-04T06:14:42.350Z,1008.52
2018-08-04T06:15:42.414Z,1008.53
2018-08-04T06:16:42.477Z,1008.56
2018-08-04T06:17:42.543Z,1008.57
2018-08-04T06:18:42.604Z,1008.51
2018-08-04T06:19:42.667Z,1008.51
2018-08-04T06:20:42.739Z,1008.52
2018-08-04T06:21:42.796Z,1008.51
2018-08-04T06:22:42.857Z,1008.53
2018-08-04T06:23:42.922Z,1008.55
2018-08-04T06:24:42.991Z,1008.49
2018-08-04T06:25:43.055Z,1008.55
2018-08-04T06:26:43.112Z,1008.46
2018-08-04T06:27:43.326Z,1008.51
2018-08-04T06:28:43.239Z,1008.53
2018-08-04T06:29:43.302Z,1008.56
2018-08-04T06:30:43.367Z,1008.59
2018-08-04T06:31:43.430Z,1008.58
2018-08-04T06:32:43.746Z,1008.61
2018-08-04T06:33:43.572Z,1008.63
2018-08-04T06:34:43.622Z,1008.62
2018-08-04T06:35:43.687Z,1008.63
2018-08-04T06:36:43.750Z,1008.65
2018-08-04T06:37:43.812Z,1008.67
2018-08-04T06:38:43.878Z,1008.63
2018-08-04T06:39:43.942Z,1008.70
2018-08-04T06:40:44.005Z,1008.73
2018-08-04T06:41:44.146Z,1008.69
2018-08-04T06:42:44.132Z,1008.71
2018-08-04T06:43:44.216Z,1008.71
2018-08-04T06:44:44.261Z,1008.70
2018-08-04T06:45:44.329Z,1008.72
2018-08-04T06:46:44.388Z,1008.69
2018-08-04T06:47:44.703Z,1008.69
2018-08-04T06:48:44.518Z,1008.71
2018-08-04T06:49:44.580Z,1008.70
2018-08-04T06:50:44.645Z,1008.66
2018-08-04T06:51:44.710Z,1008.65
2018-08-04T06:52:45.077Z,1008.68
2018-08-04T06:53:44.837Z,1008.69
2018-08-04T06:54:44.901Z,1008.69
2018-08-04T06:55:44.965Z,1008.66
2018-08-04T06:56:45.031Z,1008.68
2018-08-04T06:57:45.097Z,1008.64
2018-08-04T06:58:45.159Z,1008.65
2018-08-04T06:59:45.223Z,1008.62
2018-08-04T07:00:45.287Z,1008.56
2018-08-04T07:01:45.353Z,1008.58
2018-08-04T07:02:45.416Z,1008.59
2018-08-04T07:03:45.481Z,1008.57
2018-08-04T07:04:45.546Z,1008.56
2018-08-04T07:05:45.609Z,1008.54
2018-08-04T07:06:45.677Z,1008.62
2018-08-04T07:07:45.739Z,1008.56
2018-08-04T07:08:45.804Z,1008.57
2018-08-04T07:09:46.436Z,1008.51
2018-08-04T07:10:45.934Z,1008.48
2018-08-04T07:11:45.999Z,1008.46
2018-08-04T07:12:46.063Z,1008.50
2018-08-04T07:13:46.138Z,1008.47
2018-08-04T07:14:46.192Z,1008.49
2018-08-04T07:16:28.700Z,1008.49
2018-08-04T07:17:28.765Z,1008.52
2018-08-04T07:18:28.830Z,1008.53
2018-08-04T07:19:28.896Z,1008.54
2018-08-04T07:20:28.961Z,1008.52
2018-08-04T07:21:29.451Z,1008.52
2018-08-04T07:22:29.089Z,1008.52
2018-08-04T07:23:29.156Z,1008.56
2018-08-04T07:24:29.220Z,1008.57
2018-08-04T07:25:29.284Z,1008.54
2018-08-04T07:26:29.353Z,1008.56
2018-08-04T07:27:29.417Z,1008.56
2018-08-04T07:28:29.481Z,1008.57
2018-08-04T07:29:29.547Z,1008.56
2018-08-04T07:30:29.614Z,1008.56
2018-08-04T07:31:29.679Z,1008.55
2018-08-04T07:32:29.744Z,1008.55
2018-08-04T07:33:29.809Z,1008.59
2018-08-04T07:34:29.875Z,1008.60
2018-08-04T07:35:29.944Z,1008.55
2018-08-04T07:36:30.007Z,1008.56
2018-08-04T07:37:30.073Z,1008.59
2018-08-04T07:38:30.141Z,1008.56
2018-08-04T07:39:30.728Z,1008.55
2018-08-04T07:40:30.897Z,1008.56
2018-08-04T07:41:31.134Z,1008.59
2018-08-04T07:42:31.219Z,1008.57
2018-08-04T07:43:30.473Z,1008.54
2018-08-04T07:44:30.541Z,1008.50
2018-08-04T07:45:30.607Z,1008.51
2018-08-04T07:46:30.675Z,1008.48
2018-08-04T07:47:30.759Z,1008.49
2018-08-04T07:48:30.809Z,1008.53
2018-08-04T07:49:30.875Z,1008.53
2018-08-04T07:50:30.943Z,1008.56
2018-08-04T07:51:31.011Z,1008.58
2018-08-04T07:52:31.077Z,1008.60
2018-08-04T07:53:31.145Z,1008.60
2018-08-04T07:54:31.214Z,1008.60
2018-08-04T07:55:31.280Z,1008.61
2018-08-04T07:56:31.346Z,1008.58
2018-08-04T07:57:31.415Z,1008.60
2018-08-04T07:58:31.482Z,1008.59
2018-08-04T07:59:31.609Z,1008.57
2018-08-04T08:00:31.621Z,1008.57
2018-08-04T08:01:31.684Z,1008.55
2018-08-04T08:02:31.752Z,1008.52
2018-08-04T08:03:31.821Z,1008.49
2018-08-04T08:04:31.891Z,1008.48
2018-08-04T08:05:31.957Z,1008.48
2018-08-04T08:06:32.024Z,1008.44
2018-08-04T08:07:32.092Z,1008.44
2018-08-04T08:08:32.160Z,1008.44
2018-08-04T08:09:32.839Z,1008.44
2018-08-04T08:10:32.353Z,1008.43
2018-08-04T08:11:32.364Z,1008.40
2018-08-04T08:12:32.429Z,1008.42
2018-08-04T08:13:32.497Z,1008.41
2018-08-04T08:14:32.566Z,1008.40
2018-08-04T08:15:32.634Z,1008.40
2018-08-04T08:16:32.700Z,1008.40
2018-08-04T08:17:32.767Z,1008.43
2018-08-04T08:18:32.837Z,1008.40
2018-08-04T08:19:32.978Z,1008.41
2018-08-04T08:20:33.504Z,1008.43
2018-08-04T08:21:33.037Z,1008.44
2018-08-04T08:22:33.105Z,1008.45
2018-08-04T08:23:33.173Z,1008.43
2018-08-04T08:24:33.240Z,1008.49
2018-08-04T08:25:33.308Z,1008.50
2018-08-04T08:26:33.376Z,1008.46
2018-08-04T08:27:33.444Z,1008.48
2018-08-04T08:28:33.659Z,1008.48
2018-08-04T08:29:33.577Z,1008.45
2018-08-04T08:30:33.645Z,1008.47
2018-08-04T08:31:33.768Z,1008.46
2018-08-04T08:32:33.784Z,1008.43
2018-08-04T08:33:33.849Z,1008.38
2018-08-04T08:34:33.915Z,1008.38
2018-08-04T08:35:33.983Z,1008.38
2018-08-04T08:36:34.636Z,1008.31
2018-08-04T08:37:34.668Z,1008.31
2018-08-04T08:38:34.188Z,1008.37
2018-08-04T08:39:34.256Z,1008.35
2018-08-04T08:40:34.322Z,1008.40
2018-08-04T08:41:34.391Z,1008.40
2018-08-04T08:42:34.458Z,1008.43
2018-08-04T08:43:34.526Z,1008.45
2018-08-04T08:44:34.593Z,1008.48
2018-08-04T08:45:34.661Z,1008.49
2018-08-04T08:46:34.731Z,1008.51
2018-08-04T08:47:34.801Z,1008.53
2018-08-04T08:48:34.866Z,1008.54
2018-08-04T08:49:34.937Z,1008.55
2018-08-04T08:50:35.004Z,1008.57
2018-08-04T08:51:35.072Z,1008.56
2018-08-04T08:52:35.140Z,1008.50
2018-08-04T08:53:35.318Z,1008.52
2018-08-04T08:54:35.277Z,1008.57
2018-08-04T08:55:35.346Z,1008.51
2018-08-04T08:56:35.415Z,1008.52
2018-08-04T08:57:35.485Z,1008.49
2018-08-04T08:58:35.552Z,1008.50
2018-08-04T08:59:35.621Z,1008.50
2018-08-04T09:00:35.689Z,1008.47
2018-08-04T09:01:35.759Z,1008.44
2018-08-04T09:02:35.830Z,1008.47
2018-08-04T09:03:35.897Z,1008.42
2018-08-04T09:04:35.966Z,1008.42
2018-08-04T09:05:36.037Z,1008.43
2018-08-04T09:06:36.105Z,1008.40
2018-08-04T09:07:36.176Z,1008.41
2018-08-04T09:08:36.249Z,1008.37
2018-08-04T09:09:36.314Z,1008.39
2018-08-04T09:10:36.387Z,1008.39
2018-08-04T09:11:36.454Z,1008.37
2018-08-04T09:12:36.524Z,1008.38
2018-08-04T09:13:36.593Z,1008.38
2018-08-04T09:14:36.666Z,1008.42
2018-08-04T09:15:36.768Z,1008.43
2018-08-04T09:16:36.802Z,1008.45
2018-08-04T09:17:36.872Z,1008.46
2018-08-04T09:18:36.943Z,1008.44
2018-08-04T09:19:37.014Z,1008.44
2018-08-04T09:20:37.081Z,1008.49
2018-08-04T09:21:37.157Z,1008.49
2018-08-04T09:22:37.222Z,1008.45
2018-08-04T09:23:37.294Z,1008.42
2018-08-04T09:24:37.363Z,1008.41
2018-08-04T09:25:50.170Z,1008.41
2018-08-04T09:26:37.501Z,1008.39
2018-08-04T09:27:37.571Z,1008.36
2018-08-04T09:28:37.639Z,1008.34
2018-08-04T09:29:37.710Z,1008.35
2018-08-04T09:30:37.779Z,1008.35
2018-08-04T09:31:37.849Z,1008.36
2018-08-04T09:32:37.918Z,1008.37
2018-08-04T09:33:37.988Z,1008.35
2018-08-04T09:34:38.062Z,1008.30
2018-08-04T09:35:38.129Z,1008.32
2018-08-04T09:36:38.199Z,1008.31
2018-08-04T09:37:38.268Z,1008.35
2018-08-04T09:38:38.337Z,1008.33
2018-08-04T09:39:38.409Z,1008.34
2018-08-04T09:40:38.477Z,1008.32
2018-08-04T09:41:38.549Z,1008.39
2018-08-04T09:42:38.619Z,1008.37
2018-08-04T09:43:38.688Z,1008.38
2018-08-04T09:44:38.758Z,1008.27
2018-08-04T09:45:38.828Z,1008.37
2018-08-04T09:46:38.899Z,1008.34
2018-08-04T09:47:38.970Z,1008.33
2018-08-04T09:48:39.039Z,1008.26
2018-08-04T09:49:39.108Z,1008.27
2018-08-04T09:50:39.182Z,1008.31
2018-08-04T09:51:39.252Z,1008.31
2018-08-04T09:52:39.343Z,1008.32
2018-08-04T09:53:39.392Z,1008.37
2018-08-04T09:54:39.462Z,1008.37
2018-08-04T09:55:39.533Z,1008.30
2018-08-04T09:56:39.603Z,1008.35
2018-08-04T09:57:39.678Z,1008.38
2018-08-04T09:58:39.750Z,1008.34
2018-08-04T09:59:39.871Z,1008.31
2018-08-04T10:00:39.885Z,1008.36
2018-08-04T10:01:39.955Z,1008.35
2018-08-04T10:02:40.026Z,1008.34
2018-08-04T10:03:40.098Z,1008.33
2018-08-04T10:04:40.167Z,1008.34
2018-08-04T10:05:40.237Z,1008.37
2018-08-04T10:06:40.311Z,1008.36
2018-08-04T10:07:40.378Z,1008.35
2018-08-04T10:08:40.449Z,1008.34
2018-08-04T10:09:40.518Z,1008.28
2018-08-04T10:10:40.588Z,1008.36
2018-08-04T10:11:40.658Z,1008.40
2018-08-04T10:12:40.727Z,1008.42
2018-08-04T10:13:41.048Z,1008.46
2018-08-04T10:14:40.868Z,1008.44
2018-08-04T10:15:40.939Z,1008.51
2018-08-04T10:16:41.008Z,1008.50
2018-08-04T10:17:41.082Z,1008.45
2018-08-04T10:18:41.148Z,1008.46
2018-08-04T10:19:41.222Z,1008.47
2018-08-04T10:20:41.312Z,1008.41
2018-08-04T10:21:41.358Z,1008.43
2018-08-04T10:22:41.428Z,1008.46
2018-08-04T10:23:41.499Z,1008.64
2018-08-04T10:24:41.569Z,1008.93
2018-08-04T10:25:41.640Z,1009.01
2018-08-04T10:26:41.711Z,1009.08
2018-08-04T10:27:41.788Z,1009.03
2018-08-04T10:28:41.853Z,1009.08
2018-08-04T10:29:41.924Z,1009.10
2018-08-04T10:30:42.011Z,1009.14
2018-08-04T10:31:42.069Z,1009.10
2018-08-04T10:32:42.244Z,1009.09
2018-08-04T10:33:42.213Z,1009.07
2018-08-04T10:34:42.285Z,1009.12
2018-08-04T10:35:42.419Z,1009.12
2018-08-04T10:36:42.430Z,1009.14
2018-08-04T10:37:42.504Z,1009.20
2018-08-04T10:38:42.583Z,1009.24
2018-08-04T10:39:43.285Z,1009.23
2018-08-04T10:40:42.728Z,1009.18
2018-08-04T10:41:42.800Z,1009.26
2018-08-04T10:42:42.874Z,1009.24
2018-08-04T10:43:42.949Z,1009.27
2018-08-04T10:44:43.022Z,1009.28
2018-08-04T10:45:43.098Z,1009.30
2018-08-04T10:46:43.173Z,1009.31
2018-08-04T10:47:43.249Z,1009.27
2018-08-04T10:48:43.321Z,1009.30
2018-08-04T10:49:43.397Z,1009.28
2018-08-04T10:50:43.473Z,1009.23
2018-08-04T10:51:43.549Z,1009.23
2018-08-04T10:52:43.622Z,1009.31
2018-08-04T10:53:43.698Z,1009.25
2018-08-04T10:54:43.775Z,1009.24
2018-08-04T10:55:43.852Z,1009.27
2018-08-04T10:56:43.927Z,1009.24
2018-08-04T10:57:44.002Z,1009.23
2018-08-04T10:58:44.081Z,1009.19
2018-08-04T10:59:44.155Z,1009.20
2018-08-04T11:00:44.230Z,1009.18
2018-08-04T11:01:44.306Z,1009.18
2018-08-04T11:02:44.386Z,1009.21
2018-08-04T11:03:44.468Z,1009.23
2018-08-04T11:04:44.536Z,1009.18
2018-08-04T11:05:44.611Z,1009.27
2018-08-04T11:06:44.688Z,1009.26
2018-08-04T11:07:44.764Z,1009.25
2018-08-04T11:08:44.841Z,1009.23
2018-08-04T11:09:44.917Z,1009.25
2018-08-04T11:10:44.996Z,1009.22
2018-08-04T11:11:45.076Z,1009.22
2018-08-04T11:12:45.148Z,1009.21
2018-08-04T11:13:45.225Z,1009.20
2018-08-04T11:14:45.301Z,1009.19
2018-08-04T11:15:45.381Z,1009.18
2018-08-04T11:16:45.455Z,1009.14
2018-08-04T11:17:45.534Z,1009.16
2018-08-04T11:18:45.610Z,1009.11
2018-08-04T11:19:45.687Z,1009.13
2018-08-04T11:20:45.763Z,1009.14
2018-08-04T11:21:45.841Z,1009.10
2018-08-04T11:22:45.919Z,1009.09
2018-08-04T11:23:45.995Z,1009.12
2018-08-04T11:24:46.073Z,1009.14
2018-08-04T11:25:46.150Z,1009.07
2018-08-04T11:26:46.227Z,1009.00
2018-08-04T11:27:46.304Z,1009.04
2018-08-04T11:28:46.383Z,1009.04
2018-08-04T11:29:46.459Z,1009.05
2018-08-04T11:30:46.580Z,1009.08
2018-08-04T11:31:46.614Z,1009.02
2018-08-04T11:32:46.690Z,1008.99
2018-08-04T11:33:46.768Z,1009.04
2018-08-04T11:34:46.847Z,1008.96
2018-08-04T11:35:46.924Z,1008.95
2018-08-04T11:36:47.000Z,1008.93
2018-08-04T11:37:47.110Z,1008.91
2018-08-04T11:38:47.155Z,1008.85
2018-08-04T11:39:48.035Z,1008.84
2018-08-04T11:40:47.311Z,1008.95
2018-08-04T11:41:47.387Z,1008.89
2018-08-04T11:42:47.465Z,1008.84
2018-08-04T11:43:47.543Z,1008.88
2018-08-04T11:44:47.620Z,1008.86
2018-08-04T11:45:47.696Z,1008.82
2018-08-04T11:46:47.775Z,1008.76
2018-08-04T11:47:47.853Z,1008.81
2018-08-04T11:48:47.928Z,1008.80
2018-08-04T11:49:48.006Z,1008.76
2018-08-04T11:50:48.086Z,1008.80
2018-08-04T11:51:48.161Z,1008.82
2018-08-04T11:52:48.237Z,1008.82
2018-08-04T11:53:48.318Z,1008.81
2018-08-04T11:54:48.440Z,1008.82
2018-08-04T11:55:48.470Z,1008.81
2018-08-04T11:56:48.549Z,1008.90
2018-08-04T11:57:48.625Z,1008.93
2018-08-04T11:58:48.702Z,1008.98
2018-08-04T11:59:48.780Z,1009.03
2018-08-04T12:00:48.857Z,1009.06
2018-08-04T12:01:48.966Z,1009.12
2018-08-04T12:02:49.013Z,1009.17
2018-08-04T12:03:49.090Z,1009.20
2018-08-04T12:04:49.417Z,1009.18
2018-08-04T12:05:49.247Z,1009.20
2018-08-04T12:06:49.327Z,1009.19